createdAt,value
2023-11-15T00:01:37.962Z,100920.86
2023-11-15T00:04:09.190Z,100909.06
2023-11-15T00:06:38.556Z,100918.73
2023-11-15T00:09:08.193Z,100918.73
2023-11-15T00:11:37.506Z,100927.13
2023-11-15T00:14:07.433Z,100932.73
2023-11-15T00:16:36.822Z,100934.31
2023-11-15T00:19:07.813Z,100934.31
2023-11-15T00:21:37.606Z,100941.06
2023-11-15T00:24:07.974Z,100934.86
2023-11-15T00:26:38.027Z,100937.81
2023-11-15T00:29:07.325Z,100939.08
2023-11-15T00:31:36.644Z,100933.97
2023-11-15T00:34:06.437Z,100941.27
2023-11-15T00:36:37.437Z,100945.83
2023-11-15T00:39:08.634Z,100941.72
2023-11-15T00:41:38.388Z,100945.61
2023-11-15T00:44:08.768Z,100947.72
2023-11-15T00:46:38.150Z,100954.66
2023-11-15T00:49:07.499Z,100949.89
2023-11-15T00:51:36.991Z,100956.71
2023-11-15T00:54:07.790Z,100960.02
2023-11-15T00:56:37.242Z,100967.67
2023-11-15T00:59:06.769Z,100967.29
2023-11-15T01:01:36.110Z,100978.58
2023-11-15T01:04:06.863Z,100964.33
2023-11-15T01:06:36.393Z,100980.97
2023-11-15T01:09:07.695Z,100990.89
2023-11-15T01:11:37.255Z,100992.98
2023-11-15T01:14:06.824Z,100997.72
2023-11-15T01:16:36.163Z,100996.22
2023-11-15T01:19:05.637Z,101002.86
2023-11-15T01:21:34.901Z,101003.09
2023-11-15T01:24:04.418Z,101011.69
2023-11-15T01:26:33.771Z,101004.97
2023-11-15T01:29:03.355Z,101011.04
2023-11-15T01:31:32.904Z,101012.17
2023-11-15T01:34:02.163Z,101019.97
2023-11-15T01:36:31.638Z,101024.48
2023-11-15T01:39:00.949Z,101032.41
2023-11-15T01:41:30.849Z,101035.02
2023-11-15T01:44:00.149Z,101036.67
2023-11-15T01:46:29.693Z,101038.42
2023-11-15T01:49:00.669Z,101044.51
2023-11-15T01:51:30.070Z,101047.09
2023-11-15T01:53:59.331Z,101055.28
2023-11-15T01:56:28.692Z,101069.92
2023-11-15T01:58:59.498Z,101069.08
2023-11-15T02:01:28.883Z,101066.88
2023-11-15T02:03:58.306Z,101073.08
2023-11-15T02:06:29.888Z,101074.14
2023-11-15T02:09:01.592Z,101075.67
2023-11-15T02:11:31.478Z,101080.23
2023-11-15T02:14:01.039Z,101091.06
2023-11-15T02:16:30.510Z,101089.83
2023-11-15T02:18:59.799Z,101091.98
2023-11-15T02:21:29.880Z,101098.64
2023-11-15T02:23:59.288Z,101099.38
2023-11-15T02:26:28.668Z,101094.61
2023-11-15T02:28:57.948Z,101105.16
2023-11-15T02:31:27.304Z,101103.73
2023-11-15T02:33:56.711Z,101101.73
2023-11-15T02:36:26.083Z,101104.53
2023-11-15T02:38:55.384Z,101110.81
2023-11-15T02:41:24.924Z,101108.94
2023-11-15T02:43:54.172Z,101112.05
2023-11-15T02:46:23.995Z,101108.28
2023-11-15T02:48:53.850Z,101116.44
2023-11-15T02:51:23.109Z,101109.36
2023-11-15T02:53:53.100Z,101113.41
2023-11-15T02:56:22.899Z,101112.58
2023-11-15T02:58:53.448Z,101114.59
2023-11-15T03:01:22.750Z,101112.18
2023-11-15T03:03:52.810Z,101111.92
2023-11-15T03:06:22.092Z,101118.02
2023-11-15T03:08:51.403Z,101118.61
2023-11-15T03:11:20.758Z,101125.22
2023-11-15T03:13:50.061Z,101131.75
2023-11-15T03:16:19.508Z,101124.81
2023-11-15T03:18:48.803Z,101125.98
2023-11-15T03:21:18.160Z,101135.95
2023-11-15T03:23:47.659Z,101140.20
2023-11-15T03:26:17.337Z,101134.54
2023-11-15T03:28:46.610Z,101140.25
2023-11-15T03:31:16.050Z,101143.38
2023-11-15T03:33:47.124Z,101149.06
2023-11-15T03:36:17.106Z,101152.45
2023-11-15T03:38:46.617Z,101147.94
2023-11-15T03:41:16.017Z,101150.08
2023-11-15T03:43:45.307Z,101147.23
2023-11-15T03:46:14.592Z,101155.11
2023-11-15T03:48:43.882Z,101154.23
2023-11-15T03:51:13.276Z,101152.90
2023-11-15T03:53:42.644Z,101150.32
2023-11-15T03:56:11.992Z,101151.63
2023-11-15T03:58:42.941Z,101151.83
2023-11-15T04:01:12.237Z,101151.71
2023-11-15T04:03:41.679Z,101156.44
2023-11-15T04:06:11.321Z,101158.36
2023-11-15T04:08:42.306Z,101153.89
2023-11-15T04:11:11.793Z,101165.02
2023-11-15T04:13:41.068Z,101177.29
2023-11-15T04:16:10.683Z,101174.09
2023-11-15T04:18:40.026Z,101181.11
2023-11-15T04:21:09.320Z,101180.93
2023-11-15T04:23:38.635Z,101184.66
2023-11-15T04:26:07.996Z,101189.34
2023-11-15T04:28:37.304Z,101190.14
2023-11-15T04:31:06.822Z,101194.98
2023-11-15T04:33:36.150Z,101194.44
2023-11-15T04:36:06.205Z,101201.84
2023-11-15T04:38:35.538Z,101201.86
2023-11-15T04:41:06.872Z,101200.09
2023-11-15T04:43:36.267Z,101199.83
2023-11-15T04:46:05.792Z,101210.66
2023-11-15T04:48:36.744Z,101213.44
2023-11-15T04:51:06.758Z,101218.07
2023-11-15T04:53:36.193Z,101222.73
2023-11-15T04:56:05.839Z,101226.19
2023-11-15T04:58:35.173Z,101225.27
2023-11-15T05:01:05.278Z,101225.36
2023-11-15T05:03:34.732Z,101233.56
2023-11-15T05:06:05.350Z,101231.06
2023-11-15T05:08:34.639Z,101226.77
2023-11-15T05:11:04.241Z,101233.34
2023-11-15T05:13:33.580Z,101230.90
2023-11-15T05:16:04.636Z,101238.75
2023-11-15T05:18:34.051Z,101237.58
2023-11-15T05:21:03.366Z,101242.53
2023-11-15T05:23:32.771Z,101243.94
2023-11-15T05:26:02.178Z,101239.16
2023-11-15T05:28:31.435Z,101237.06
2023-11-15T05:31:00.777Z,101243.17
2023-11-15T05:33:31.569Z,101245.61
2023-11-15T05:36:01.464Z,101248.14
2023-11-15T05:38:30.884Z,101251.66
2023-11-15T05:41:00.209Z,101254.37
2023-11-15T05:43:29.881Z,101258.75
2023-11-15T05:45:59.251Z,101253.93
2023-11-15T05:48:28.585Z,101258.65
2023-11-15T05:50:57.951Z,101265.73
2023-11-15T05:53:27.382Z,101269.03
2023-11-15T05:55:56.807Z,101269.84
2023-11-15T05:58:26.130Z,101266.83
2023-11-15T06:00:55.412Z,101274.03
2023-11-15T06:03:25.375Z,101271.70
2023-11-15T06:05:54.732Z,101271.22
2023-11-15T06:08:25.315Z,101274.98
2023-11-15T06:10:54.601Z,101274.00
2023-11-15T06:13:25.859Z,101277.02
2023-11-15T06:15:55.183Z,101276.80
2023-11-15T06:18:24.545Z,101278.58
2023-11-15T06:20:53.904Z,101275.31
2023-11-15T06:23:23.230Z,101282.21
2023-11-15T06:25:52.553Z,101285.23
2023-11-15T06:28:21.880Z,101288.47
2023-11-15T06:30:51.276Z,101289.94
2023-11-15T06:33:21.132Z,101290.11
2023-11-15T06:35:50.497Z,101287.98
2023-11-15T06:38:19.881Z,101292.14
2023-11-15T06:40:50.294Z,101292.88
2023-11-15T06:43:19.565Z,101297.75
2023-11-15T06:45:48.868Z,101304.78
2023-11-15T06:48:18.304Z,101312.04
2023-11-15T06:50:47.722Z,101310.26
2023-11-15T06:53:17.070Z,101320.02
2023-11-15T06:55:47.825Z,101325.11
2023-11-15T06:58:18.337Z,101341.31
2023-11-15T07:00:49.020Z,101342.72
2023-11-15T07:03:19.094Z,101365.80
2023-11-15T07:05:50.282Z,101367.86
2023-11-15T07:08:21.345Z,101351.13
2023-11-15T07:10:50.667Z,101353.34
2023-11-15T07:13:21.600Z,101360.89
2023-11-15T07:15:51.534Z,101340.94
2023-11-15T07:18:24.905Z,101364.85
2023-11-15T07:20:53.754Z,101367.64
2023-11-15T07:23:23.108Z,101366.63
2023-11-15T07:25:52.407Z,101367.59
2023-11-15T07:28:22.053Z,101362.09
2023-11-15T07:30:51.810Z,101373.62
2023-11-15T07:33:24.173Z,101373.19
2023-11-15T07:35:53.768Z,101368.91
2023-11-15T07:38:24.587Z,101371.20
2023-11-15T07:40:53.934Z,101370.77
2023-11-15T07:43:24.130Z,101372.40
2023-11-15T07:45:55.083Z,101372.97
2023-11-15T07:48:26.169Z,101382.80
2023-11-15T07:50:57.598Z,101382.37
2023-11-15T07:53:28.172Z,101379.96
2023-11-15T07:55:59.150Z,101382.05
2023-11-15T07:58:28.438Z,101377.25
2023-11-15T08:00:57.819Z,101393.36
2023-11-15T08:03:28.802Z,101394.20
2023-11-15T08:05:58.183Z,101402.89
2023-11-15T08:08:28.249Z,101404.02
2023-11-15T08:10:57.550Z,101408.52
2023-11-15T08:13:27.823Z,101419.56
2023-11-15T08:15:57.623Z,101422.47
2023-11-15T08:18:27.239Z,101423.95
2023-11-15T08:20:57.702Z,101423.88
2023-11-15T08:23:27.055Z,101428.02
2023-11-15T08:25:56.406Z,101430.20
2023-11-15T08:28:25.951Z,101430.81
2023-11-15T08:30:55.240Z,101440.52
2023-11-15T08:33:24.637Z,101433.71
2023-11-15T08:35:54.666Z,101436.82
2023-11-15T08:38:26.759Z,101437.70
2023-11-15T08:40:56.831Z,101443.92
2023-11-15T08:43:26.333Z,101437.55
2023-11-15T08:45:57.472Z,101447.97
2023-11-15T08:48:26.966Z,101439.66
2023-11-15T08:50:56.571Z,101451.25
2023-11-15T08:53:26.728Z,101454.20
2023-11-15T08:55:56.840Z,101446.80
2023-11-15T08:58:27.803Z,101445.84
2023-11-15T09:00:59.083Z,101451.66
2023-11-15T09:03:28.550Z,101458.08
2023-11-15T09:05:59.708Z,101458.02
2023-11-15T09:08:30.644Z,101449.73
2023-11-15T09:10:59.935Z,101451.27
2023-11-15T09:13:30.170Z,101457.05
2023-11-15T09:16:00.294Z,101459.59
2023-11-15T09:18:30.625Z,101458.09
2023-11-15T09:21:01.677Z,101453.22
2023-11-15T09:23:31.371Z,101452.38
2023-11-15T09:26:00.941Z,101451.11
2023-11-15T09:28:30.300Z,101455.38
2023-11-15T09:30:59.849Z,101461.68
2023-11-15T09:33:31.223Z,101461.55
2023-11-15T09:36:01.872Z,101466.55
2023-11-15T09:38:32.734Z,101469.95
2023-11-15T09:41:02.433Z,101469.66
2023-11-15T09:43:32.081Z,101462.94
2023-11-15T09:46:04.183Z,101463.30
2023-11-15T09:48:34.973Z,101463.02
2023-11-15T09:51:05.663Z,101465.79
2023-11-15T09:53:37.643Z,101465.61
2023-11-15T09:56:09.325Z,101458.98
2023-11-15T09:58:38.611Z,101462.53
2023-11-15T10:01:09.776Z,101462.80
2023-11-15T10:03:43.073Z,101455.08
2023-11-15T10:06:14.125Z,101453.04
2023-11-15T10:08:55.225Z,101462.32
2023-11-15T10:11:27.213Z,101459.53
2023-11-15T10:14:13.623Z,101465.04
2023-11-15T10:16:50.191Z,101463.20
2023-11-15T10:19:25.326Z,101467.53
2023-11-15T10:22:03.665Z,101466.21
2023-11-15T10:24:35.436Z,101467.84
2023-11-15T10:27:12.257Z,101465.33
2023-11-15T10:29:49.062Z,101462.26
2023-11-15T10:32:24.312Z,101467.58
2023-11-15T10:34:55.218Z,101471.93
2023-11-15T10:37:25.330Z,101479.28
2023-11-15T10:39:54.644Z,101475.77
2023-11-15T10:42:24.407Z,101473.61
2023-11-15T10:44:56.908Z,101477.28
2023-11-15T10:47:27.454Z,101472.47
2023-11-15T10:50:03.200Z,101469.05
2023-11-15T10:52:33.148Z,101479.35
2023-11-15T10:55:03.626Z,101478.38
2023-11-15T10:57:33.436Z,101477.64
2023-11-15T11:00:04.664Z,101490.87
2023-11-15T11:02:35.958Z,101486.42
2023-11-15T11:05:06.904Z,101482.02
2023-11-15T11:07:41.350Z,101476.88
2023-11-15T11:10:13.864Z,101480.30
2023-11-15T11:12:43.406Z,101480.78
2023-11-15T11:15:25.623Z,101479.68
2023-11-15T11:18:15.575Z,101485.88
2023-11-15T11:20:48.197Z,101502.30
2023-11-15T11:23:21.706Z,101496.26
2023-11-15T11:25:53.407Z,101499.48
2023-11-15T11:28:23.179Z,101516.71
2023-11-15T11:31:21.141Z,101501.91
2023-11-15T11:34:13.345Z,101523.54
2023-11-15T11:36:52.135Z,101503.20
2023-11-15T11:39:50.085Z,101512.75
2023-11-15T11:42:29.015Z,101509.95
2023-11-15T11:44:58.355Z,101518.33
2023-11-15T11:47:27.861Z,101524.98
2023-11-15T11:49:58.757Z,101498.88
2023-11-15T11:52:28.405Z,101498.95
2023-11-15T11:54:57.892Z,101491.37
2023-11-15T11:57:27.217Z,101492.28
2023-11-15T12:00:16.094Z,101486.87
2023-11-15T12:03:00.513Z,101476.00
2023-11-15T12:05:26.013Z,101473.95
2023-11-15T12:07:57.461Z,101491.70
2023-11-15T12:10:27.151Z,101508.41
2023-11-15T12:13:00.707Z,101500.64
2023-11-15T12:15:30.182Z,101485.13
2023-11-15T12:18:01.076Z,101504.14
2023-11-15T12:20:40.028Z,101501.84
2023-11-15T12:23:11.309Z,101490.89
2023-11-15T12:25:53.880Z,101509.36
2023-11-15T12:28:24.965Z,101511.33
2023-11-15T12:30:56.600Z,101498.03
2023-11-15T12:33:27.001Z,101498.31
2023-11-15T12:35:57.860Z,101513.63
2023-11-15T12:38:27.282Z,101508.06
2023-11-15T12:41:07.812Z,101509.75
2023-11-15T12:43:38.044Z,101510.14
2023-11-15T12:46:20.491Z,101509.53
2023-11-15T12:48:49.165Z,101519.07
2023-11-15T12:51:19.512Z,101521.69
2023-11-15T12:53:48.933Z,101514.17
2023-11-15T12:56:20.512Z,101522.70
2023-11-15T12:58:52.031Z,101523.88
2023-11-15T13:01:21.989Z,101516.38
2023-11-15T13:04:00.071Z,101528.52
2023-11-15T13:06:34.028Z,101523.72
2023-11-15T13:09:04.098Z,101519.09
2023-11-15T13:11:33.533Z,101519.76
2023-11-15T13:14:02.944Z,101520.55
2023-11-15T13:16:33.975Z,101528.63
2023-11-15T13:19:04.437Z,101518.73
2023-11-15T13:21:33.897Z,101519.06
2023-11-15T13:24:03.514Z,101534.16
2023-11-15T13:26:32.820Z,101529.97
2023-11-15T13:29:03.840Z,101524.97
2023-11-15T13:31:33.091Z,101527.79
2023-11-15T13:34:02.603Z,101528.83
2023-11-15T13:36:32.652Z,101533.92
2023-11-15T13:39:03.661Z,101532.83
2023-11-15T13:41:32.981Z,101530.28
2023-11-15T13:44:02.299Z,101539.33
2023-11-15T13:46:33.057Z,101536.34
2023-11-15T13:49:04.039Z,101542.91
2023-11-15T13:51:33.877Z,101539.01
2023-11-15T13:54:03.560Z,101534.33
2023-11-15T13:56:33.205Z,101532.19
2023-11-15T13:59:02.515Z,101533.94
2023-11-15T14:01:31.901Z,101540.20
2023-11-15T14:04:01.315Z,101546.30
2023-11-15T14:06:30.649Z,101543.12
2023-11-15T14:09:01.006Z,101555.49
2023-11-15T14:11:30.949Z,101557.84
2023-11-15T14:14:00.482Z,101554.94
2023-11-15T14:16:29.799Z,101565.84
2023-11-15T14:19:00.444Z,101572.41
2023-11-15T14:21:31.592Z,101566.05
2023-11-15T14:24:00.925Z,101570.59
2023-11-15T14:26:30.213Z,101559.49
2023-11-15T14:28:59.547Z,101566.28
2023-11-15T14:31:29.452Z,101567.34
2023-11-15T14:34:00.439Z,101569.84
2023-11-15T14:36:30.683Z,101567.63
2023-11-15T14:39:00.015Z,101570.24
2023-11-15T14:41:30.983Z,101572.59
2023-11-15T14:44:00.426Z,101562.38
2023-11-15T14:46:31.346Z,101576.34
2023-11-15T14:49:00.961Z,101582.52
2023-11-15T14:51:30.248Z,101593.37
2023-11-15T14:54:01.575Z,101593.28
2023-11-15T14:56:31.137Z,101600.27
2023-11-15T14:59:00.693Z,101599.67
2023-11-15T15:01:30.005Z,101597.39
2023-11-15T15:03:59.514Z,101596.52
2023-11-15T15:06:29.458Z,101594.75
2023-11-15T15:08:59.256Z,101593.83
2023-11-15T15:11:28.730Z,101600.10
2023-11-15T15:13:58.069Z,101594.92
2023-11-15T15:16:28.010Z,101598.75
2023-11-15T15:18:57.419Z,101597.57
2023-11-15T15:21:26.869Z,101604.77
2023-11-15T15:23:56.204Z,101599.44
2023-11-15T15:26:25.551Z,101604.46
2023-11-15T15:28:55.249Z,101608.89
2023-11-15T15:31:24.617Z,101602.08
2023-11-15T15:33:54.131Z,101612.55
2023-11-15T15:36:24.001Z,101613.50
2023-11-15T15:38:53.417Z,101619.69
2023-11-15T15:41:23.372Z,101619.46
2023-11-15T15:43:55.733Z,101617.89
2023-11-15T15:46:24.019Z,101617.88
2023-11-15T15:48:54.429Z,101610.34
2023-11-15T15:51:25.180Z,101613.94
2023-11-15T15:53:54.686Z,101619.33
2023-11-15T15:56:25.132Z,101629.45
2023-11-15T15:58:54.564Z,101631.45
2023-11-15T16:01:29.217Z,101629.72
2023-11-15T16:04:00.142Z,101634.39
2023-11-15T16:06:29.564Z,101634.60
2023-11-15T16:08:59.025Z,101623.53
2023-11-15T16:11:28.303Z,101637.23
2023-11-15T16:13:57.574Z,101627.88
2023-11-15T16:16:26.946Z,101635.33
2023-11-15T16:18:56.493Z,101640.36
2023-11-15T16:21:25.896Z,101640.77
2023-11-15T16:23:56.892Z,101641.64
2023-11-15T16:26:26.207Z,101641.88
2023-11-15T16:28:55.497Z,101650.66
2023-11-15T16:31:24.890Z,101650.59
2023-11-15T16:33:54.534Z,101639.98
2023-11-15T16:36:23.891Z,101644.03
2023-11-15T16:38:53.322Z,101637.83
2023-11-15T16:41:22.613Z,101639.55
2023-11-15T16:43:51.945Z,101647.09
2023-11-15T16:46:21.228Z,101653.73
2023-11-15T16:48:50.639Z,101653.45
2023-11-15T16:51:20.014Z,101654.17
2023-11-15T16:53:51.042Z,101655.53
2023-11-15T16:56:20.410Z,101659.27
2023-11-15T16:58:49.674Z,101655.49
2023-11-15T17:01:19.013Z,101655.19
2023-11-15T17:03:48.444Z,101652.61
2023-11-15T17:06:20.709Z,101660.08
2023-11-15T17:08:50.599Z,101645.33
2023-11-15T17:11:20.482Z,101650.41
2023-11-15T17:13:50.155Z,101646.75
2023-11-15T17:16:19.871Z,101658.27
2023-11-15T17:18:49.968Z,101657.56
2023-11-15T17:23:48.783Z,101665.44
2023-11-15T17:26:18.772Z,101669.52
2023-11-15T17:28:48.369Z,101673.37
2023-11-15T17:31:22.435Z,101671.14
2023-11-15T17:33:50.528Z,101672.02
2023-11-15T17:36:21.565Z,101675.08
2023-11-15T17:38:51.055Z,101678.73
2023-11-15T17:41:21.189Z,101681.81
2023-11-15T17:43:50.493Z,101684.50
2023-11-15T17:46:20.267Z,101679.28
2023-11-15T17:48:49.558Z,101680.47
2023-11-15T17:51:18.972Z,101674.74
2023-11-15T17:53:48.339Z,101680.04
2023-11-15T17:56:17.677Z,101684.11
2023-11-15T17:58:48.488Z,101684.59
2023-11-15T18:01:18.619Z,101680.66
2023-11-15T18:03:48.051Z,101679.71
2023-11-15T18:06:19.120Z,101675.25
2023-11-15T18:08:48.403Z,101678.30
2023-11-15T18:11:18.265Z,101676.90
2023-11-15T18:13:47.631Z,101677.40
2023-11-15T18:16:17.089Z,101674.29
2023-11-15T18:18:46.892Z,101673.87
2023-11-15T18:21:16.321Z,101673.58
2023-11-15T18:23:45.585Z,101672.98
2023-11-15T18:26:15.844Z,101670.34
2023-11-15T18:28:45.781Z,101672.52
2023-11-15T18:31:15.120Z,101680.95
2023-11-15T18:33:44.551Z,101676.95
2023-11-15T18:36:13.904Z,101678.67
2023-11-15T18:38:43.170Z,101683.16
2023-11-15T18:41:13.786Z,101676.03
2023-11-15T18:43:44.946Z,101686.70
2023-11-15T18:46:14.524Z,101681.39
2023-11-15T18:48:44.048Z,101680.47
2023-11-15T18:51:13.514Z,101679.11
2023-11-15T18:53:42.926Z,101678.51
2023-11-15T18:56:12.238Z,101682.66
2023-11-15T18:58:41.830Z,101683.16
2023-11-15T19:01:11.467Z,101691.53
2023-11-15T19:03:40.979Z,101699.98
2023-11-15T19:06:10.564Z,101710.77
2023-11-15T19:08:40.662Z,101706.77
2023-11-15T19:11:09.926Z,101713.94
2023-11-15T19:13:40.866Z,101706.86
2023-11-15T19:16:10.287Z,101702.79
2023-11-15T19:18:39.641Z,101702.81
2023-11-15T19:21:09.644Z,101690.50
2023-11-15T19:23:40.676Z,101696.27
2023-11-15T19:26:11.212Z,101695.30
2023-11-15T19:28:42.180Z,101688.72
2023-11-15T19:31:11.495Z,101692.28
2023-11-15T19:33:42.344Z,101691.32
2023-11-15T19:36:12.308Z,101693.96
2023-11-15T19:38:42.054Z,101698.00
2023-11-15T19:41:11.604Z,101697.07
2023-11-15T19:43:42.663Z,101689.38
2023-11-15T19:46:19.694Z,101689.91
2023-11-15T19:48:49.104Z,101681.03
2023-11-15T19:51:22.871Z,101682.00
2023-11-15T19:53:56.983Z,101687.39
2023-11-15T19:56:26.244Z,101685.98
2023-11-15T19:58:55.601Z,101684.11
2023-11-15T20:01:26.053Z,101679.68
2023-11-15T20:03:55.974Z,101672.20
2023-11-15T20:06:29.279Z,101673.09
2023-11-15T20:08:58.293Z,101675.72
2023-11-15T20:11:28.050Z,101675.16
2023-11-15T20:13:57.382Z,101669.87
2023-11-15T20:16:28.589Z,101670.33
2023-11-15T20:18:58.032Z,101652.34
2023-11-15T20:21:27.533Z,101680.58
2023-11-15T20:23:56.958Z,101682.27
2023-11-15T20:26:26.326Z,101669.83
2023-11-15T20:28:55.668Z,101671.65
2023-11-15T20:31:26.919Z,101669.38
2023-11-15T20:33:56.336Z,101669.34
2023-11-15T20:36:25.834Z,101682.20
2023-11-15T20:38:55.217Z,101676.03
2023-11-15T20:41:24.529Z,101671.47
2023-11-15T20:43:53.882Z,101679.13
2023-11-15T20:46:23.509Z,101676.08
2023-11-15T20:48:54.521Z,101675.00
2023-11-15T20:51:23.854Z,101666.13
2023-11-15T20:53:53.340Z,101672.33
2023-11-15T20:56:22.761Z,101675.90
2023-11-15T20:58:52.104Z,101679.44
2023-11-15T21:01:22.838Z,101677.62
2023-11-15T21:03:55.289Z,101671.80
2023-11-15T21:06:24.163Z,101671.43
2023-11-15T21:08:53.394Z,101664.66
2023-11-15T21:11:24.794Z,101662.00
2023-11-15T21:13:55.561Z,101663.88
2023-11-15T21:16:25.367Z,101659.05
2023-11-15T21:18:55.019Z,101658.08
2023-11-15T21:21:24.697Z,101663.92
2023-11-15T21:23:54.170Z,101666.45
2023-11-15T21:26:23.863Z,101664.77
2023-11-15T21:28:54.939Z,101676.63
2023-11-15T21:31:24.257Z,101671.80
2023-11-15T21:33:53.655Z,101672.52
2023-11-15T21:36:23.027Z,101671.31
2023-11-15T21:38:52.390Z,101673.23
2023-11-15T21:41:21.653Z,101671.94
2023-11-15T21:43:51.253Z,101681.72
2023-11-15T21:46:21.654Z,101672.30
2023-11-15T21:48:51.019Z,101676.63
2023-11-15T21:51:23.382Z,101676.67
2023-11-15T21:53:54.611Z,101679.31
2023-11-15T21:56:23.771Z,101677.45
2023-11-15T21:58:53.599Z,101678.78
2023-11-15T22:01:24.819Z,101676.50
2023-11-15T22:03:54.313Z,101674.76
2023-11-15T22:06:24.605Z,101665.03
2023-11-15T22:08:54.095Z,101665.90
2023-11-15T22:11:23.433Z,101669.20
2023-11-15T22:13:52.740Z,101666.48
2023-11-15T22:16:22.592Z,101666.48
2023-11-15T22:18:51.890Z,101668.57
2023-11-15T22:21:21.404Z,101671.73
2023-11-15T22:23:50.733Z,101680.11
2023-11-15T22:26:20.065Z,101674.03
2023-11-15T22:28:52.279Z,101680.22
2023-11-15T22:31:21.696Z,101686.95
2023-11-15T22:33:52.798Z,101687.73
2023-11-15T22:36:22.235Z,101688.82
2023-11-15T22:38:52.629Z,101694.95
2023-11-15T22:41:22.095Z,101686.64
2023-11-15T22:43:51.579Z,101681.67
2023-11-15T22:46:20.952Z,101682.13
2023-11-15T22:48:50.416Z,101686.11
2023-11-15T22:51:20.037Z,101684.41
2023-11-15T22:53:49.288Z,101690.25
2023-11-15T22:56:19.634Z,101682.82
2023-11-15T22:58:48.984Z,101692.45
2023-11-15T23:01:18.483Z,101692.90
2023-11-15T23:03:49.594Z,101690.08
2023-11-15T23:06:19.937Z,101692.02
2023-11-15T23:08:52.487Z,101696.50
2023-11-15T23:11:23.403Z,101694.68
2023-11-15T23:13:56.408Z,101699.77
2023-11-15T23:16:26.056Z,101696.02
2023-11-15T23:18:55.534Z,101698.59
2023-11-15T23:21:25.464Z,101695.56
2023-11-15T23:23:54.831Z,101696.44
2023-11-15T23:26:26.131Z,101688.94
2023-11-15T23:28:55.417Z,101699.50
2023-11-15T23:31:26.177Z,101699.05
2023-11-15T23:33:55.521Z,101690.59
2023-11-15T23:36:24.853Z,101686.19
2023-11-15T23:38:54.230Z,101691.92
2023-11-15T23:41:25.368Z,101688.41
2023-11-15T23:43:56.048Z,101693.20
2023-11-15T23:46:25.304Z,101685.83
2023-11-15T23:48:54.669Z,101693.30
2023-11-15T23:51:24.024Z,101694.22
2023-11-15T23:53:53.378Z,101692.02
2023-11-15T23:56:22.675Z,101684.00
2023-11-15T23:58:53.656Z,101691.14
